Aeroporto :
LOGIN :

Iscrizione | Disclaimer

   EN    FR    IT 

 










Sommario :    VFR   VFR Marginale   IFR   IFR Intensivo   IFR Molto Intensivo
Visibilità : 
Base nubi : 
>= 8 km
>= 3000ft
5 / 8 km
1000 / 3000 ft
1500m / 5 km
500 / 1000 ft
800 / 1500m
200 / 500 ft
< 800m
< 200 ft
Simboli :   Temporali  Nebbia  Neve Forte  Precipitazioni Forti  Vento > 20 kt
SIGMETs :   Varie  Temporali  Ghiacco  Turbolenza  Onda orograficha  Ceneri Vulcaniche







- Altitudine del aeroporto : 510 ft


LJCE - Cerklje

ULTIMO METAR :
  • 270730Z 26006KT 220V290 CAVOK 27/21 Q1020

METARs OBSOLETI :
  • 270700Z 24005KT 210V280 CAVOK 26/21 Q1020
  • 270630Z 24005KT 210V290 CAVOK 25/20 Q1020
  • 270600Z 26006KT CAVOK 23/20 Q1020
  • 270530Z 24005KT 190V270 CAVOK 22/20 Q1021
  • 270500Z 25003KT 230V320 CAVOK 21/20 Q1021

TAF TAF LJCE
Valido dal 27 a 06 ore il 27 a 15 ore UTC


270500Z 2706/2715 VRB02KT CAVOK
BECMG 2708/2710 26005KT
PROB30
TEMPO 2714/2715 32015G35KT 6000 TSRA SCT050CB BKN070
Nessun NOTAM noto per questo aeroporto.



MetMap, La meteo Aeronautica in un colpo d'occhio ! - Copyright ORBIFLY Dicembre 2007 - Disclaimer

ORBIFLY MET'MAP TEAM :

Programmazione e sviluppo : Alexandra Zaïnal
Concezione e sviluppo : Baudouin d'Aumeries
Co-Programmazione e sviluppo : Marc-Olivier Méhu
Supporto tecnico e logistico : Manuel Goepfert
Aiuto per la traduzione : Arnaldo La Scala

Contatto : metmap@orbifly.com




FONTI E CREDITI :

   NOAA